Time;durP1;ratioP1;P1;durP2;ratioP2;P2;SDS_P1;SDS_P2;PMS_P1;PMS_P2;Temp;Humidity;BMP_temperature;BMP_pressure;BME280_temperature;BME280_humidity;BME280_pressure;Samples;Min_cycle;Max_cycle;Signal;HPM_P1;HPM_P2
2024/04/22 00:00:04;;;;;;;6.40;5.43;;;2.40;99.90;;;;;;5380045;26;20213;-70
2024/04/22 00:02:30;;;;;;;5.47;4.10;;;2.40;99.90;;;;;;5348848;26;20677;-70
2024/04/22 00:04:55;;;;;;;5.30;4.17;;;2.40;99.90;;;;;;5380014;26;20436;-69
2024/04/22 00:07:21;;;;;;;8.23;4.80;;;2.40;99.90;;;;;;5379469;26;20217;-70
2024/04/22 00:09:46;;;;;;;4.07;3.67;;;2.40;99.90;;;;;;5379378;26;20483;-70
2024/04/22 00:12:12;;;;;;;4.67;4.13;;;2.40;99.90;;;;;;5348379;26;20238;-70
2024/04/22 00:14:37;;;;;;;3.60;2.77;;;2.40;99.90;;;;;;5379765;26;20335;-70
2024/04/22 00:17:03;;;;;;;3.17;2.90;;;2.40;99.90;;;;;;5379775;26;20210;-70
2024/04/22 00:19:28;;;;;;;2.80;2.60;;;2.40;99.90;;;;;;5379852;26;20344;-70
2024/04/22 00:21:54;;;;;;;4.43;2.70;;;2.40;99.90;;;;;;5379349;26;20226;-70
2024/04/22 00:24:19;;;;;;;2.37;2.17;;;2.40;99.90;;;;;;5379422;26;20295;-69
2024/04/22 00:26:45;;;;;;;2.77;2.43;;;2.40;99.90;;;;;;5370213;26;20320;-70
2024/04/22 00:29:10;;;;;;;3.83;3.07;;;2.30;99.90;;;;;;5379257;26;20554;-69
2024/04/22 00:31:36;;;;;;;2.37;2.17;;;2.40;99.90;;;;;;5378973;26;20225;-69
2024/04/22 00:34:01;;;;;;;2.70;2.33;;;2.40;99.90;;;;;;5379435;26;20209;-70
2024/04/22 00:36:27;;;;;;;2.60;2.40;;;2.30;99.90;;;;;;5379460;26;20222;-70
2024/04/22 00:38:52;;;;;;;1.60;1.50;;;2.30;99.90;;;;;;5379390;26;20551;-69
2024/04/22 00:41:18;;;;;;;2.97;2.20;;;2.30;99.90;;;;;;5378541;26;20230;-69
2024/04/22 00:43:43;;;;;;;4.80;2.10;;;2.30;99.90;;;;;;5378042;26;20206;-68
2024/04/22 00:46:09;;;;;;;5.80;2.67;;;2.30;99.90;;;;;;5379055;26;20217;-69
2024/04/22 00:48:35;;;;;;;2.90;2.10;;;2.30;99.90;;;;;;5348298;26;20255;-69
2024/04/22 00:51:01;;;;;;;2.40;2.10;;;2.30;99.90;;;;;;5378147;26;20543;-70
2024/04/22 00:53:27;;;;;;;3.50;2.20;;;2.30;99.90;;;;;;5379173;26;20503;-69
2024/04/22 00:55:54;;;;;;;3.50;2.90;;;2.30;99.90;;;;;;5379283;26;20554;-70
2024/04/22 00:58:21;;;;;;;4.20;2.67;;;2.30;99.90;;;;;;5379515;26;20495;-70
2024/04/22 01:00:48;;;;;;;3.40;2.20;;;2.30;99.90;;;;;;5378492;26;20792;-70
2024/04/22 01:03:15;;;;;;;3.13;2.20;;;2.30;99.90;;;;;;5347830;26;20504;-70
2024/04/22 01:05:40;;;;;;;3.33;3.13;;;2.30;99.90;;;;;;5378761;26;20966;-70
2024/04/22 01:08:06;;;;;;;4.30;2.87;;;2.30;99.90;;;;;;5378816;26;20504;-70
2024/04/22 01:10:32;;;;;;;3.13;2.27;;;2.30;99.90;;;;;;5378324;26;20345;-69
2024/04/22 01:12:58;;;;;;;4.50;2.90;;;2.30;99.90;;;;;;5378570;26;20436;-70
2024/04/22 01:15:24;;;;;;;4.40;2.77;;;2.30;99.90;;;;;;5378680;26;20218;-70
2024/04/22 01:17:49;;;;;;;3.40;2.87;;;2.30;99.90;;;;;;5348880;26;20535;-70
2024/04/22 01:20:16;;;;;;;3.77;2.87;;;2.30;99.90;;;;;;5382201;26;20233;-70
2024/04/22 01:22:41;;;;;;;3.73;2.70;;;2.30;99.90;;;;;;5381745;26;20205;-71
2024/04/22 01:25:08;;;;;;;3.33;2.97;;;2.40;99.90;;;;;;5376905;26;20570;-70
2024/04/22 01:27:35;;;;;;;4.20;3.17;;;2.40;99.90;;;;;;5378253;26;20744;-69
2024/04/22 01:30:02;;;;;;;3.37;2.20;;;2.40;99.90;;;;;;5381876;26;20795;-70
2024/04/22 01:32:28;;;;;;;3.40;2.67;;;2.40;99.90;;;;;;5381771;26;20642;-70
2024/04/22 01:34:56;;;;;;;5.50;4.07;;;2.30;99.90;;;;;;5351152;26;20475;-69
2024/04/22 01:37:21;;;;;;;5.00;3.33;;;2.30;99.90;;;;;;5381996;26;20213;-69
2024/04/22 01:39:47;;;;;;;2.37;1.90;;;2.30;99.90;;;;;;5374033;26;20505;-69
2024/04/22 01:42:12;;;;;;;5.90;3.17;;;2.30;99.90;;;;;;5380942;26;20268;-70
2024/04/22 01:44:38;;;;;;;4.20;3.43;;;2.30;99.90;;;;;;5381215;26;20319;-70
2024/04/22 01:47:04;;;;;;;3.80;3.20;;;2.30;99.90;;;;;;5381576;26;20214;-69
2024/04/22 01:49:30;;;;;;;2.60;2.30;;;2.30;99.90;;;;;;5381805;26;20217;-70
2024/04/22 01:51:56;;;;;;;3.00;2.40;;;2.20;99.90;;;;;;5350116;26;20471;-70
2024/04/22 01:54:21;;;;;;;3.33;2.30;;;2.20;99.90;;;;;;5381958;26;20260;-69
2024/04/22 01:56:48;;;;;;;6.23;2.50;;;2.20;99.90;;;;;;5381736;26;20260;-70
2024/04/22 01:59:14;;;;;;;5.33;3.50;;;2.20;99.90;;;;;;5381785;26;20253;-70
2024/04/22 02:01:41;;;;;;;5.30;2.60;;;2.20;99.90;;;;;;5381250;26;20806;-69
2024/04/22 02:04:07;;;;;;;4.50;3.53;;;2.20;99.90;;;;;;5381349;26;20213;-70
2024/04/22 02:06:32;;;;;;;6.73;4.50;;;2.20;99.90;;;;;;5381627;26;20565;-70
2024/04/22 02:08:58;;;;;;;5.00;2.87;;;2.20;99.90;;;;;;5379421;26;20302;-70
2024/04/22 02:11:24;;;;;;;5.97;3.80;;;2.20;99.90;;;;;;5376020;26;20221;-69
2024/04/22 02:13:49;;;;;;;4.27;3.17;;;2.20;99.90;;;;;;5381310;26;20217;-70
2024/04/22 02:16:15;;;;;;;3.33;3.03;;;2.30;99.90;;;;;;5381485;26;20260;-70
2024/04/22 02:18:40;;;;;;;3.80;2.67;;;2.30;99.90;;;;;;5380960;26;20546;-70
2024/04/22 02:21:06;;;;;;;5.43;3.70;;;2.40;99.90;;;;;;5380956;26;20329;-70
2024/04/22 02:23:32;;;;;;;3.63;3.17;;;2.50;99.90;;;;;;5381199;26;20236;-69
2024/04/22 02:25:57;;;;;;;6.07;3.30;;;2.50;99.90;;;;;;5375892;26;20230;-70
2024/04/22 02:28:23;;;;;;;7.73;3.07;;;2.60;99.90;;;;;;5381057;26;20567;-70
2024/04/22 02:30:48;;;;;;;4.80;3.00;;;2.70;99.90;;;;;;5380574;26;20288;-70
2024/04/22 02:33:14;;;;;;;4.60;3.60;;;2.80;99.90;;;;;;5381076;26;20705;-70
2024/04/22 02:35:40;;;;;;;3.17;2.70;;;2.80;99.90;;;;;;5381345;26;20214;-70
2024/04/22 02:38:06;;;;;;;4.80;3.23;;;2.90;99.90;;;;;;5381447;26;20217;-69
2024/04/22 02:40:31;;;;;;;3.47;3.17;;;2.90;99.90;;;;;;5380748;26;20533;-69
2024/04/22 02:42:57;;;;;;;3.60;3.20;;;3.00;99.90;;;;;;5381441;26;20225;-70
2024/04/22 02:45:24;;;;;;;2.90;2.30;;;3.00;99.90;;;;;;5381364;26;20671;-70
2024/04/22 02:47:50;;;;;;;5.30;3.03;;;3.10;99.90;;;;;;5381003;26;20241;-70
2024/04/22 02:50:15;;;;;;;5.53;3.67;;;3.10;99.90;;;;;;5381012;26;20512;-70
2024/04/22 02:52:41;;;;;;;5.37;4.00;;;3.20;99.90;;;;;;5380575;26;20290;-70
2024/04/22 02:55:06;;;;;;;4.77;3.10;;;3.30;99.90;;;;;;5380863;26;20214;-70
2024/04/22 02:57:32;;;;;;;4.23;3.67;;;3.30;99.90;;;;;;5377695;26;20222;-70
2024/04/22 02:59:58;;;;;;;4.03;3.67;;;3.40;99.90;;;;;;5380201;26;20566;-70
2024/04/22 03:02:23;;;;;;;6.00;4.27;;;3.50;99.90;;;;;;5349128;26;20233;-70
2024/04/22 03:04:49;;;;;;;7.63;4.70;;;3.60;99.90;;;;;;5380814;26;20221;-69
2024/04/22 03:07:15;;;;;;;6.43;3.90;;;3.60;99.90;;;;;;5380887;26;20700;-70
2024/04/22 03:09:43;;;;;;;8.43;4.60;;;3.70;99.90;;;;;;5380801;26;20443;-70
2024/04/22 03:12:10;;;;;;;7.40;4.10;;;3.70;99.90;;;;;;5380847;26;20631;-70
2024/04/22 03:14:36;;;;;;;10.67;4.00;;;3.80;99.90;;;;;;5380780;26;20444;-70
2024/04/22 03:17:01;;;;;;;7.20;5.30;;;3.80;99.90;;;;;;5380638;26;20484;-70
2024/04/22 03:19:27;;;;;;;4.57;3.10;;;3.80;99.90;;;;;;5380863;26;20584;-70
2024/04/22 03:21:52;;;;;;;4.63;3.50;;;3.80;99.90;;;;;;5380302;26;20563;-69
2024/04/22 03:24:18;;;;;;;5.80;3.63;;;3.80;99.90;;;;;;5380627;26;20255;-70
2024/04/22 03:26:43;;;;;;;2.90;2.70;;;3.80;99.90;;;;;;5369573;26;20225;-69
2024/04/22 03:29:09;;;;;;;6.93;4.47;;;3.70;99.90;;;;;;5382166;26;20226;-70
2024/04/22 03:31:34;;;;;;;5.67;4.13;;;3.70;99.90;;;;;;5381250;26;20763;-69
2024/04/22 03:34:00;;;;;;;4.70;4.13;;;3.60;99.90;;;;;;5380469;26;20740;-70
2024/04/22 03:36:26;;;;;;;5.27;3.80;;;3.60;99.90;;;;;;5380359;26;20218;-70
2024/04/22 03:38:52;;;;;;;5.83;3.93;;;3.60;99.90;;;;;;5380486;26;20250;-69
2024/04/22 03:41:17;;;;;;;4.97;4.07;;;3.50;99.90;;;;;;5379278;26;20222;-69
2024/04/22 03:43:43;;;;;;;5.37;4.00;;;3.50;99.90;;;;;;5380211;26;20300;-70
2024/04/22 03:51:36;;;;;;;3.47;2.70;;;3.50;99.90;;;;;;5379809;26;20496;-70
2024/04/22 03:54:02;;;;;;;4.70;4.27;;;3.40;99.90;;;;;;5379901;26;20880;-70
2024/04/22 03:56:27;;;;;;;5.63;3.43;;;3.40;99.90;;;;;;5380082;26;20217;-69
2024/04/22 03:58:53;;;;;;;6.93;4.23;;;3.40;99.90;;;;;;5370832;26;20272;-70
2024/04/22 04:01:18;;;;;;;7.23;3.70;;;3.40;99.90;;;;;;5379794;26;20252;-70
2024/04/22 04:03:44;;;;;;;7.10;4.20;;;3.40;99.90;;;;;;5379739;26;20273;-70
2024/04/22 04:06:09;;;;;;;18.33;4.87;;;3.40;99.90;;;;;;5349287;26;20272;-69
2024/04/22 04:08:35;;;;;;;9.20;4.80;;;3.40;99.90;;;;;;5380020;26;20217;-70
2024/04/22 04:11:05;;;;;;;5.20;4.70;;;3.40;99.90;;;;;;5379401;26;20280;-70
2024/04/22 04:13:31;;;;;;;10.63;5.83;;;3.40;99.90;;;;;;5379945;26;20210;-70
2024/04/22 04:15:56;;;;;;;12.80;4.90;;;3.40;99.90;;;;;;5379817;26;20499;-70
2024/04/22 04:18:22;;;;;;;5.37;4.83;;;3.40;99.90;;;;;;5379804;26;20783;-70
2024/04/22 04:20:48;;;;;;;4.17;3.70;;;3.40;99.90;;;;;;5379351;26;20230;-69
2024/04/22 04:23:14;;;;;;;9.37;4.90;;;3.50;99.90;;;;;;5379554;26;21035;-70
2024/04/22 04:25:39;;;;;;;8.23;4.53;;;3.50;99.90;;;;;;5379222;26;20338;-69
2024/04/22 04:28:05;;;;;;;7.10;5.50;;;3.50;99.90;;;;;;5379800;26;20705;-71
2024/04/22 04:30:32;;;;;;;7.53;5.23;;;3.60;99.90;;;;;;5377917;26;20642;-70
2024/04/22 04:32:57;;;;;;;7.43;5.50;;;3.70;99.90;;;;;;5379245;26;20591;-70
2024/04/22 04:35:23;;;;;;;6.93;5.03;;;3.80;99.90;;;;;;5379477;26;20459;-70
2024/04/22 04:37:50;;;;;;;9.70;6.47;;;3.80;99.90;;;;;;5379138;26;20713;-70
2024/04/22 04:40:17;;;;;;;7.33;4.30;;;3.90;99.90;;;;;;5378729;26;20217;-70
2024/04/22 04:42:42;;;;;;;6.80;4.70;;;4.00;99.90;;;;;;5378539;26;20451;-70
2024/04/22 04:45:08;;;;;;;8.27;5.40;;;4.00;99.90;;;;;;5379283;26;20895;-70
2024/04/22 04:47:33;;;;;;;8.90;5.20;;;4.10;99.90;;;;;;5379239;26;20356;-70
2024/04/22 04:49:59;;;;;;;9.93;6.00;;;4.20;99.90;;;;;;5379252;26;20318;-70
2024/04/22 04:52:24;;;;;;;8.07;5.90;;;4.20;99.90;;;;;;5379284;26;20222;-70
2024/04/22 04:54:50;;;;;;;9.87;6.70;;;4.20;99.90;;;;;;5382771;26;20206;-70
2024/04/22 04:57:15;;;;;;;9.50;5.53;;;4.20;99.90;;;;;;5382314;26;20256;-70
2024/04/22 04:59:40;;;;;;;7.37;5.37;;;4.30;99.90;;;;;;5382543;26;20209;-69
2024/04/22 05:02:07;;;;;;;8.53;5.47;;;4.30;99.90;;;;;;5372721;26;20355;-70
2024/04/22 05:04:32;;;;;;;7.73;6.27;;;4.40;99.90;;;;;;5382176;26;20298;-69
2024/04/22 05:06:58;;;;;;;8.20;5.63;;;4.40;99.90;;;;;;5379916;26;20449;-70
2024/04/22 05:09:24;;;;;;;8.20;5.00;;;4.50;99.90;;;;;;5380008;26;20276;-69
2024/04/22 05:11:50;;;;;;;4.73;4.33;;;4.50;99.90;;;;;;5381798;26;20226;-70
2024/04/22 05:14:15;;;;;;;8.73;5.50;;;4.60;99.90;;;;;;5382366;26;20743;-70
2024/04/22 05:16:45;;;;;;;6.60;4.70;;;4.70;99.90;;;;;;5382253;26;20452;-70
2024/04/22 05:19:10;;;;;;;9.17;5.53;;;4.70;99.90;;;;;;5347304;26;20726;-70
2024/04/22 05:21:36;;;;;;;7.73;6.73;;;4.80;99.90;;;;;;5346844;26;20517;-70
2024/04/22 05:24:09;;;;;;;11.03;5.70;;;4.90;99.90;;;;;;5347342;26;20445;-69
2024/04/22 05:26:34;;;;;;;8.07;6.03;;;5.00;99.90;;;;;;5372146;26;20214;-70
2024/04/22 05:29:00;;;;;;;8.30;5.47;;;5.10;99.90;;;;;;5380651;26;20448;-70
2024/04/22 05:31:25;;;;;;;4.93;4.20;;;5.20;99.90;;;;;;5380626;26;20342;-69
2024/04/22 05:36:35;;;;;;;6.63;4.50;;;5.40;99.90;;;;;;5381145;26;20272;-70
2024/04/22 05:39:02;;;;;;;7.73;4.73;;;5.60;99.90;;;;;;5381693;26;20868;-69
2024/04/22 05:41:28;;;;;;;5.13;3.73;;;5.70;99.90;;;;;;5381559;26;20222;-70
2024/04/22 05:43:53;;;;;;;5.00;4.00;;;5.90;99.90;;;;;;5381956;26;20483;-70
2024/04/22 05:46:19;;;;;;;7.73;5.23;;;6.00;99.90;;;;;;5381970;26;20261;-69
2024/04/22 05:48:45;;;;;;;8.40;4.37;;;6.20;99.90;;;;;;5381883;26;20221;-69
2024/04/22 05:51:10;;;;;;;5.33;4.83;;;6.40;99.90;;;;;;5350456;26;20230;-70
2024/04/22 05:53:36;;;;;;;6.67;5.00;;;6.50;99.90;;;;;;5351303;26;20677;-69
2024/04/22 05:56:01;;;;;;;7.40;4.70;;;6.70;99.90;;;;;;5381956;26;20255;-70
2024/04/22 05:58:27;;;;;;;8.33;4.70;;;6.80;99.90;;;;;;5381883;26;20209;-70
2024/04/22 06:00:52;;;;;;;6.13;4.93;;;7.00;99.90;;;;;;5381356;26;20217;-69
2024/04/22 06:03:18;;;;;;;5.87;4.20;;;7.20;99.90;;;;;;5381051;26;20213;-69
2024/04/22 06:05:44;;;;;;;4.80;3.90;;;7.40;99.90;;;;;;5381566;26;20214;-69
2024/04/22 06:08:09;;;;;;;5.63;4.93;;;7.60;99.90;;;;;;5381813;26;20217;-70
2024/04/22 06:10:35;;;;;;;4.97;4.20;;;7.80;99.90;;;;;;5381767;26;20256;-70
2024/04/22 06:13:01;;;;;;;6.30;5.10;;;8.00;99.90;;;;;;5381785;26;20206;-70
2024/04/22 06:15:26;;;;;;;6.73;5.17;;;8.20;99.90;;;;;;5350772;26;20309;-70
2024/04/22 06:17:52;;;;;;;6.67;5.13;;;8.50;99.90;;;;;;5381669;26;20222;-70
2024/04/22 06:20:17;;;;;;;4.83;4.33;;;8.80;99.90;;;;;;5375927;26;20280;-70
2024/04/22 06:22:43;;;;;;;6.80;4.60;;;9.30;99.90;;;;;;5332238;26;20234;-71
2024/04/22 06:25:08;;;;;;;8.27;4.97;;;9.80;99.90;;;;;;5376700;26;20273;-70
2024/04/22 06:27:34;;;;;;;5.50;4.47;;;10.30;99.90;;;;;;5376857;26;20267;-70
2024/04/22 06:30:01;;;;;;;7.37;4.57;;;10.90;99.90;;;;;;5380989;26;20221;-71
2024/04/22 06:32:26;;;;;;;7.50;5.33;;;11.50;99.90;;;;;;5380892;26;20265;-70
2024/04/22 06:34:52;;;;;;;5.77;4.60;;;12.00;99.90;;;;;;5349971;26;20504;-70
2024/04/22 06:37:17;;;;;;;4.70;4.20;;;12.50;99.90;;;;;;5381211;26;20821;-70
2024/04/22 06:39:43;;;;;;;5.30;4.23;;;12.80;99.90;;;;;;5381339;26;20205;-68
2024/04/22 06:42:08;;;;;;;5.43;3.93;;;13.30;99.90;;;;;;5380681;26;20230;-68
2024/04/22 06:44:34;;;;;;;4.47;3.70;;;13.80;99.90;;;;;;5380909;26;20326;-69
2024/04/22 06:46:59;;;;;;;4.80;3.90;;;14.80;99.90;;;;;;5381011;26;20261;-68
2024/04/22 06:49:25;;;;;;;4.60;3.30;;;15.70;99.90;;;;;;5380997;26;20256;-69
2024/04/22 06:51:50;;;;;;;5.80;4.00;;;16.30;99.90;;;;;;5380658;26;20226;-68
2024/04/22 06:54:16;;;;;;;3.90;3.50;;;16.60;99.90;;;;;;5376827;26;20218;-68
2024/04/22 06:56:41;;;;;;;5.27;3.40;;;16.70;98.60;;;;;;5373519;26;20256;-69
2024/04/22 06:59:07;;;;;;;3.97;3.40;;;16.50;94.60;;;;;;5380846;26;20229;-68
2024/04/22 07:01:32;;;;;;;5.33;3.70;;;16.30;93.00;;;;;;5379870;26;20311;-68
2024/04/22 07:03:58;;;;;;;5.63;4.20;;;16.20;92.10;;;;;;5380951;26;20635;-69
2024/04/22 07:06:24;;;;;;;4.37;3.67;;;16.30;91.50;;;;;;5380932;26;20226;-69
2024/04/22 07:08:49;;;;;;;5.00;4.00;;;16.40;90.00;;;;;;5380854;26;20263;-69
2024/04/22 07:11:15;;;;;;;5.50;4.40;;;16.30;88.00;;;;;;5349314;26;20463;-68
2024/04/22 07:13:41;;;;;;;5.90;3.67;;;16.00;82.50;;;;;;5380631;26;20269;-68
2024/04/22 07:16:06;;;;;;;5.87;3.90;;;15.80;81.90;;;;;;5379676;26;20260;-68
2024/04/22 07:18:32;;;;;;;4.47;4.07;;;15.50;80.00;;;;;;5380604;26;20259;-67
2024/04/22 07:20:57;;;;;;;5.13;4.53;;;15.30;80.30;;;;;;5380206;26;20358;-68
2024/04/22 07:23:23;;;;;;;5.17;3.77;;;15.20;81.80;;;;;;5380436;26;20700;-68
2024/04/22 07:25:49;;;;;;;6.17;3.83;;;15.40;83.80;;;;;;5376194;26;20265;-69
2024/04/22 07:28:15;;;;;;;4.70;4.17;;;15.70;83.20;;;;;;5366059;26;20218;-68
2024/04/22 07:30:41;;;;;;;6.27;3.90;;;16.10;82.00;;;;;;5379737;26;20462;-69
2024/04/22 07:33:07;;;;;;;4.03;3.73;;;16.40;80.30;;;;;;5380180;26;20217;-68
2024/04/22 07:35:33;;;;;;;3.50;3.20;;;16.50;78.20;;;;;;5380347;26;20923;-68
2024/04/22 07:37:59;;;;;;;4.37;3.57;;;16.50;78.00;;;;;;5380252;26;20475;-68
2024/04/22 07:40:25;;;;;;;5.30;3.87;;;16.40;76.60;;;;;;5380335;26;20227;-68
2024/04/22 07:42:50;;;;;;;4.63;3.70;;;16.30;75.80;;;;;;5380084;26;20444;-68
2024/04/22 07:45:18;;;;;;;4.80;4.07;;;16.30;76.90;;;;;;5380310;26;20210;-69
2024/04/22 07:47:45;;;;;;;4.10;3.60;;;16.50;76.50;;;;;;5380340;26;20229;-71
2024/04/22 07:50:11;;;;;;;4.97;3.93;;;16.70;76.00;;;;;;5370687;26;20463;-69
2024/04/22 07:52:37;;;;;;;4.20;3.70;;;17.00;73.50;;;;;;5379310;26;20444;-70
2024/04/22 07:55:04;;;;;;;3.77;3.20;;;17.40;73.30;;;;;;5379874;26;20498;-68
2024/04/22 07:57:30;;;;;;;4.70;3.57;;;18.00;71.70;;;;;;5379491;26;20455;-69
2024/04/22 07:59:56;;;;;;;3.47;2.90;;;19.00;70.50;;;;;;5382940;26;21091;-69
2024/04/22 08:02:22;;;;;;;5.20;4.03;;;20.00;66.40;;;;;;5379705;26;20252;-70
2024/04/22 08:04:48;;;;;;;4.40;4.00;;;20.50;59.20;;;;;;5366328;26;20229;-67
2024/04/22 08:07:17;;;;;;;5.37;4.43;;;20.70;55.20;;;;;;5379152;26;20310;-69
2024/04/22 08:09:43;;;;;;;3.97;3.67;;;21.10;54.30;;;;;;5385241;26;20555;-68
2024/04/22 08:12:11;;;;;;;4.53;3.70;;;22.30;53.50;;;;;;5379369;26;20550;-68
2024/04/22 08:14:36;;;;;;;4.93;4.13;;;23.20;50.40;;;;;;5379812;26;20241;-68
2024/04/22 08:17:02;;;;;;;3.83;3.53;;;24.20;47.00;;;;;;5379215;26;20922;-68
2024/04/22 08:19:28;;;;;;;7.53;3.30;;;25.00;44.60;;;;;;5379572;26;20267;-69
2024/04/22 08:21:53;;;;;;;3.70;3.40;;;25.80;42.10;;;;;;5382528;26;20267;-68
2024/04/22 08:24:21;;;;;;;4.73;3.33;;;26.10;39.40;;;;;;5394237;26;20222;-68
2024/04/22 08:26:46;;;;;;;2.50;1.83;;;27.10;38.50;;;;;;5356893;26;20226;-68
2024/04/22 08:29:15;;;;;;;2.63;2.43;;;29.10;36.90;;;;;;5379848;26;20448;-69
2024/04/22 08:31:42;;;;;;;3.43;2.60;;;30.00;33.00;;;;;;5376884;26;20222;-68
2024/04/22 08:34:08;;;;;;;3.00;2.60;;;31.20;30.80;;;;;;5382694;26;20571;-68
2024/04/22 08:36:33;;;;;;;3.10;2.67;;;32.30;29.00;;;;;;5383000;26;20819;-67
2024/04/22 08:38:59;;;;;;;2.70;2.50;;;32.40;27.00;;;;;;5383101;26;20560;-71
2024/04/22 08:41:24;;;;;;;2.70;2.50;;;32.30;26.10;;;;;;5382319;26;20591;-70
2024/04/22 08:43:50;;;;;;;2.90;2.50;;;32.70;26.00;;;;;;5382662;26;20222;-69
2024/04/22 08:46:17;;;;;;;2.80;2.60;;;33.30;24.60;;;;;;5402290;26;20275;-68
2024/04/22 08:48:43;;;;;;;3.07;2.20;;;33.10;24.00;;;;;;5416756;26;20216;-70
2024/04/22 08:51:09;;;;;;;2.30;2.10;;;34.00;24.00;;;;;;5378731;26;20593;-70
2024/04/22 08:53:34;;;;;;;6.10;1.97;;;36.00;23.70;;;;;;5382723;26;20596;-71
2024/04/22 08:56:00;;;;;;;3.17;2.10;;;38.10;22.30;;;;;;5382775;26;20221;-68
2024/04/22 08:58:25;;;;;;;2.03;1.93;;;39.70;21.30;;;;;;5351667;26;20222;-69
2024/04/22 09:00:51;;;;;;;2.90;2.70;;;41.40;20.20;;;;;;5381771;26;20233;-70
2024/04/22 09:03:16;;;;;;;2.10;2.00;;;42.00;18.30;;;;;;5382419;26;20260;-71
2024/04/22 09:05:42;;;;;;;1.93;1.57;;;41.50;18.10;;;;;;5382438;26;20222;-70
2024/04/22 09:08:09;;;;;;;2.13;1.93;;;41.30;17.10;;;;;;5382467;26;20606;-70
2024/04/22 09:10:37;;;;;;;2.17;1.80;;;40.20;16.30;;;;;;5382137;26;20232;-70
2024/04/22 09:13:03;;;;;;;1.90;1.80;;;39.10;16.00;;;;;;5382124;26;20440;-69
2024/04/22 09:15:29;;;;;;;1.87;1.77;;;38.50;16.30;;;;;;5382194;26;20516;-71
2024/04/22 09:17:55;;;;;;;1.77;1.67;;;38.50;16.90;;;;;;5372015;26;20265;-71
2024/04/22 09:20:22;;;;;;;1.40;1.30;;;38.90;17.10;;;;;;5367757;26;20530;-71
2024/04/22 09:22:48;;;;;;;1.77;1.67;;;39.70;17.00;;;;;;5381801;26;20285;-70
2024/04/22 09:25:14;;;;;;;2.20;2.00;;;40.80;16.90;;;;;;5379909;26;20499;-70
2024/04/22 09:27:45;;;;;;;1.90;1.73;;;41.90;15.80;;;;;;5373056;26;20455;-69
2024/04/22 09:30:13;;;;;;;2.73;1.60;;;42.90;15.30;;;;;;5382256;26;20440;-70
2024/04/22 09:32:44;;;;;;;1.90;1.80;;;43.60;15.10;;;;;;5347275;26;20483;-69
2024/04/22 09:35:15;;;;;;;1.87;1.77;;;44.20;14.00;;;;;;5382516;26;20585;-71
2024/04/22 09:37:46;;;;;;;2.60;2.40;;;43.20;12.80;;;;;;5382314;26;21083;-69
2024/04/22 09:40:13;;;;;;;2.13;1.93;;;42.00;13.30;;;;;;5381528;26;20875;-69
2024/04/22 09:42:44;;;;;;;2.90;2.43;;;41.30;13.60;;;;;;5381660;26;20489;-69
2024/04/22 09:45:11;;;;;;;2.50;2.30;;;40.00;12.90;;;;;;5382265;26;20455;-70
2024/04/22 09:47:39;;;;;;;1.90;1.80;;;38.80;12.60;;;;;;5382715;26;20468;-69
2024/04/22 09:50:06;;;;;;;2.30;1.80;;;38.00;13.70;;;;;;5351239;26;21112;-69
2024/04/22 09:52:36;;;;;;;2.03;1.60;;;37.30;13.90;;;;;;5350716;26;20455;-70
2024/04/22 09:55:03;;;;;;;1.47;1.37;;;36.80;14.40;;;;;;5381975;26;20447;-70
2024/04/22 09:57:31;;;;;;;3.07;1.87;;;36.20;14.40;;;;;;5381938;26;20448;-69
2024/04/22 09:59:59;;;;;;;2.37;1.67;;;35.60;14.80;;;;;;5350966;26;21097;-69
2024/04/22 10:02:25;;;;;;;2.90;1.63;;;34.90;14.70;;;;;;5381300;26;20525;-69
2024/04/22 10:04:51;;;;;;;2.77;1.67;;;34.60;15.40;;;;;;5381839;26;20500;-69
2024/04/22 10:07:16;;;;;;;1.30;1.20;;;34.40;15.70;;;;;;5381668;26;20787;-69
2024/04/22 10:09:47;;;;;;;1.67;1.57;;;33.90;15.60;;;;;;5382147;26;20210;-70
2024/04/22 10:12:13;;;;;;;1.87;1.53;;;33.40;15.50;;;;;;5380941;26;20252;-69
2024/04/22 10:14:38;;;;;;;5.30;1.97;;;32.10;16.50;;;;;;5381549;26;20451;-69
2024/04/22 10:17:05;;;;;;;1.53;1.43;;;30.30;17.50;;;;;;5381667;26;20705;-69
2024/04/22 10:19:32;;;;;;;1.90;1.80;;;28.20;18.70;;;;;;5381311;26;20221;-68
2024/04/22 10:22:02;;;;;;;4.80;2.10;;;26.30;20.00;;;;;;5380895;26;20636;-69
2024/04/22 10:24:39;;;;;;;1.80;1.60;;;24.50;21.30;;;;;;5381550;26;20924;-68
2024/04/22 10:27:09;;;;;;;2.70;2.30;;;22.90;22.30;;;;;;5370794;26;20507;-68
2024/04/22 10:29:35;;;;;;;3.47;3.27;;;21.30;23.30;;;;;;5381304;26;20455;-68
2024/04/22 10:32:00;;;;;;;2.90;2.70;;;20.20;24.90;;;;;;5380554;26;20471;-69
2024/04/22 10:34:27;;;;;;;2.60;2.40;;;19.20;25.60;;;;;;5380195;26;20268;-69
2024/04/22 10:36:53;;;;;;;2.97;2.70;;;18.40;26.50;;;;;;5381426;26;20338;-69
2024/04/22 10:39:18;;;;;;;2.60;2.40;;;17.80;26.90;;;;;;5381125;26;20460;-68
2024/04/22 10:41:44;;;;;;;2.40;2.20;;;17.50;27.50;;;;;;5380792;26;20233;-69
2024/04/22 10:44:11;;;;;;;2.47;2.27;;;17.60;28.10;;;;;;5379896;26;20209;-69
2024/04/22 10:46:38;;;;;;;2.57;2.37;;;18.00;28.50;;;;;;5372538;26;20460;-68
2024/04/22 10:49:07;;;;;;;3.47;2.90;;;18.60;28.80;;;;;;5380157;26;21057;-68
2024/04/22 10:51:33;;;;;;;3.90;3.50;;;19.10;28.60;;;;;;5346885;26;20539;-69
2024/04/22 10:53:58;;;;;;;3.10;2.73;;;19.30;28.80;;;;;;5385674;26;20849;-69
2024/04/22 10:56:24;;;;;;;2.17;1.97;;;19.40;29.50;;;;;;5384357;26;20463;-69
2024/04/22 10:58:50;;;;;;;2.53;2.33;;;19.70;29.60;;;;;;5380307;26;20273;-69
2024/04/22 11:01:16;;;;;;;2.87;2.20;;;19.90;29.50;;;;;;5380319;26;20229;-69
2024/04/22 11:03:42;;;;;;;2.33;2.13;;;19.90;29.40;;;;;;5381042;26;20588;-69
2024/04/22 11:06:12;;;;;;;3.10;2.60;;;19.50;29.40;;;;;;5381373;26;20586;-69
2024/04/22 11:08:42;;;;;;;2.20;2.00;;;19.10;29.50;;;;;;5381100;26;20245;-69
2024/04/22 11:11:09;;;;;;;2.70;2.30;;;19.10;30.10;;;;;;5380219;26;21022;-69
2024/04/22 11:13:36;;;;;;;2.50;2.30;;;20.50;30.80;;;;;;5380749;26;20444;-69
2024/04/22 11:16:08;;;;;;;2.23;2.13;;;21.70;29.30;;;;;;5380758;26;20444;-73
2024/04/22 11:18:34;;;;;;;1.77;1.67;;;22.40;28.40;;;;;;5380815;26;20931;-69
2024/04/22 11:21:00;;;;;;;1.60;1.50;;;24.10;28.10;;;;;;5380022;26;20471;-69
2024/04/22 11:23:25;;;;;;;2.03;1.43;;;25.40;27.30;;;;;;5380868;26;20444;-69
2024/04/22 11:25:51;;;;;;;2.90;2.70;;;26.70;26.00;;;;;;5379819;26;20229;-69
2024/04/22 11:28:18;;;;;;;2.77;2.43;;;28.90;25.40;;;;;;5380499;26;20683;-69
2024/04/22 11:30:44;;;;;;;2.43;2.23;;;31.30;23.60;;;;;;5374914;26;20221;-69
2024/04/22 11:33:10;;;;;;;1.90;1.80;;;33.70;22.10;;;;;;5380849;26;20574;-69
2024/04/22 11:35:37;;;;;;;2.03;1.93;;;35.70;20.90;;;;;;5349988;26;20233;-69
2024/04/22 11:38:23;;;;;;;2.30;2.10;;;37.60;20.40;;;;;;5380386;26;20463;-69
2024/04/22 11:40:49;;;;;;;2.37;2.17;;;39.10;18.50;;;;;;5379376;26;20468;-70
2024/04/22 11:43:15;;;;;;;2.27;2.17;;;40.10;17.40;;;;;;5379634;26;20452;-70
2024/04/22 11:45:40;;;;;;;2.93;2.63;;;40.80;16.70;;;;;;5381147;26;20244;-70
2024/04/22 11:48:06;;;;;;;3.27;2.97;;;40.90;16.00;;;;;;5380346;26;20205;-69
2024/04/22 11:50:32;;;;;;;2.30;2.13;;;40.90;15.60;;;;;;5380270;26;20288;-69
2024/04/22 11:52:58;;;;;;;2.70;2.50;;;41.40;16.20;;;;;;5379824;26;20202;-70
2024/04/22 11:55:23;;;;;;;2.33;2.13;;;42.20;16.20;;;;;;5348772;26;20229;-70
2024/04/22 11:57:49;;;;;;;1.87;1.77;;;43.10;15.60;;;;;;5380201;26;20359;-69
2024/04/22 12:00:14;;;;;;;2.40;2.30;;;44.00;15.70;;;;;;5380286;26;20303;-70
2024/04/22 12:02:40;;;;;;;2.40;2.30;;;44.90;15.10;;;;;;5379221;26;20247;-69
2024/04/22 12:05:09;;;;;;;3.17;2.87;;;45.70;15.00;;;;;;5380020;26;20244;-71
2024/04/22 12:07:36;;;;;;;3.00;2.80;;;46.00;14.50;;;;;;5349202;26;20306;-69
2024/04/22 12:10:03;;;;;;;3.53;3.23;;;44.80;13.40;;;;;;5380120;26;20420;-70
2024/04/22 12:12:28;;;;;;;3.67;2.80;;;43.40;13.80;;;;;;5379383;26;20404;-69
2024/04/22 12:14:54;;;;;;;2.30;2.20;;;41.60;13.80;;;;;;5378854;26;20503;-70
2024/04/22 12:17:21;;;;;;;3.00;2.80;;;39.90;14.40;;;;;;5379968;26;20624;-69
2024/04/22 12:19:47;;;;;;;4.40;2.80;;;38.50;14.90;;;;;;5349011;26;20234;-68
2024/04/22 12:22:12;;;;;;;3.00;2.70;;;36.80;15.10;;;;;;5379416;26;20512;-68
2024/04/22 12:24:38;;;;;;;2.60;2.40;;;35.00;15.90;;;;;;5379943;26;20589;-70
2024/04/22 12:27:04;;;;;;;2.90;2.70;;;33.40;16.80;;;;;;5379582;26;20213;-70
2024/04/22 12:29:29;;;;;;;2.70;2.50;;;31.60;18.00;;;;;;5380037;26;20814;-68
2024/04/22 12:31:55;;;;;;;2.10;2.00;;;29.90;19.40;;;;;;5379563;26;20341;-68
2024/04/22 12:34:21;;;;;;;3.03;2.83;;;28.00;20.40;;;;;;5379860;26;20541;-68
2024/04/22 12:36:46;;;;;;;2.33;2.13;;;26.40;21.40;;;;;;5379799;26;20693;-69
2024/04/22 12:39:12;;;;;;;2.80;2.60;;;24.90;23.00;;;;;;5369226;26;20269;-68
2024/04/22 12:41:37;;;;;;;2.60;2.40;;;23.50;24.00;;;;;;5378717;26;20570;-68
2024/04/22 12:44:03;;;;;;;2.60;2.40;;;22.40;25.20;;;;;;5396588;26;20251;-69
2024/04/22 12:46:40;;;;;;;6.70;3.57;;;21.40;26.60;;;;;;5379743;26;20225;-69
2024/04/22 12:51:50;;;;;;;3.80;3.50;;;19.70;28.80;;;;;;5378770;26;20503;-69
2024/04/22 12:54:16;;;;;;;3.30;3.10;;;19.00;29.60;;;;;;5378976;26;20456;-68
2024/04/22 12:56:41;;;;;;;3.00;2.80;;;18.50;29.90;;;;;;5379187;26;20213;-69